sensor_id;sensor_type;location;lat;lon;timestamp;temperature;humidity
22716;DHT22;11525;51.152;4.456;2023-07-20T00:01:23;17.80;99.90
22716;DHT22;11525;51.152;4.456;2023-07-20T00:03:49;17.80;99.90
22716;DHT22;11525;51.152;4.456;2023-07-20T00:06:21;17.80;99.90
22716;DHT22;11525;51.152;4.456;2023-07-20T00:08:47;17.90;99.90
22716;DHT22;11525;51.152;4.456;2023-07-20T00:11:12;18.00;99.90
22716;DHT22;11525;51.152;4.456;2023-07-20T00:13:39;18.00;99.90
22716;DHT22;11525;51.152;4.456;2023-07-20T00:16:05;18.10;99.90
22716;DHT22;11525;51.152;4.456;2023-07-20T00:18:31;18.00;99.90
22716;DHT22;11525;51.152;4.456;2023-07-20T00:20:57;18.10;99.90
22716;DHT22;11525;51.152;4.456;2023-07-20T00:23:22;18.20;99.90
22716;DHT22;11525;51.152;4.456;2023-07-20T00:25:49;18.10;99.90
22716;DHT22;11525;51.152;4.456;2023-07-20T00:28:14;18.00;99.90
22716;DHT22;11525;51.152;4.456;2023-07-20T00:30:40;18.00;99.90
22716;DHT22;11525;51.152;4.456;2023-07-20T00:33:10;18.10;99.90
22716;DHT22;11525;51.152;4.456;2023-07-20T00:35:36;18.00;99.90
22716;DHT22;11525;51.152;4.456;2023-07-20T00:38:01;17.90;99.90
22716;DHT22;11525;51.152;4.456;2023-07-20T00:40:27;17.90;99.90
22716;DHT22;11525;51.152;4.456;2023-07-20T00:42:53;17.80;99.90
22716;DHT22;11525;51.152;4.456;2023-07-20T00:45:19;17.80;99.90
22716;DHT22;11525;51.152;4.456;2023-07-20T00:47:45;17.80;99.90
22716;DHT22;11525;51.152;4.456;2023-07-20T00:50:12;17.80;99.90
22716;DHT22;11525;51.152;4.456;2023-07-20T00:52:38;17.90;99.90
22716;DHT22;11525;51.152;4.456;2023-07-20T00:55:07;17.80;99.90
22716;DHT22;11525;51.152;4.456;2023-07-20T00:57:32;17.70;99.90
22716;DHT22;11525;51.152;4.456;2023-07-20T00:59:58;17.70;99.90
22716;DHT22;11525;51.152;4.456;2023-07-20T01:02:24;17.70;99.90
22716;DHT22;11525;51.152;4.456;2023-07-20T01:04:50;17.70;99.90
22716;DHT22;11525;51.152;4.456;2023-07-20T01:07:35;17.60;99.90
22716;DHT22;11525;51.152;4.456;2023-07-20T01:12:53;17.50;99.90
22716;DHT22;11525;51.152;4.456;2023-07-20T01:15:20;17.40;99.90
22716;DHT22;11525;51.152;4.456;2023-07-20T01:17:46;17.30;99.90
22716;DHT22;11525;51.152;4.456;2023-07-20T01:20:16;17.20;99.90
22716;DHT22;11525;51.152;4.456;2023-07-20T01:33:44;17.00;99.90
22716;DHT22;11525;51.152;4.456;2023-07-20T01:36:11;17.00;99.90
22716;DHT22;11525;51.152;4.456;2023-07-20T01:38:37;17.00;99.90
22716;DHT22;11525;51.152;4.456;2023-07-20T01:41:03;17.00;99.90
22716;DHT22;11525;51.152;4.456;2023-07-20T01:43:30;16.90;99.90
22716;DHT22;11525;51.152;4.456;2023-07-20T01:45:56;16.90;99.90
22716;DHT22;11525;51.152;4.456;2023-07-20T01:48:22;16.90;99.90
22716;DHT22;11525;51.152;4.456;2023-07-20T01:50:48;16.90;99.90
22716;DHT22;11525;51.152;4.456;2023-07-20T01:53:14;16.80;99.90
22716;DHT22;11525;51.152;4.456;2023-07-20T01:55:40;16.80;99.90
22716;DHT22;11525;51.152;4.456;2023-07-20T01:58:05;16.80;99.90
22716;DHT22;11525;51.152;4.456;2023-07-20T02:00:32;16.80;99.90
22716;DHT22;11525;51.152;4.456;2023-07-20T02:02:57;16.90;99.90
22716;DHT22;11525;51.152;4.456;2023-07-20T02:05:23;16.80;99.90
22716;DHT22;11525;51.152;4.456;2023-07-20T02:07:49;16.70;99.90
22716;DHT22;11525;51.152;4.456;2023-07-20T02:10:15;16.70;99.90
22716;DHT22;11525;51.152;4.456;2023-07-20T02:12:41;16.60;99.90
22716;DHT22;11525;51.152;4.456;2023-07-20T02:15:07;16.70;99.90
22716;DHT22;11525;51.152;4.456;2023-07-20T02:17:34;16.70;99.90
22716;DHT22;11525;51.152;4.456;2023-07-20T02:19:59;16.70;99.90
22716;DHT22;11525;51.152;4.456;2023-07-20T02:22:25;16.70;99.90
22716;DHT22;11525;51.152;4.456;2023-07-20T02:24:51;16.70;99.90
22716;DHT22;11525;51.152;4.456;2023-07-20T02:27:17;16.70;99.90
22716;DHT22;11525;51.152;4.456;2023-07-20T02:29:42;16.60;99.90
22716;DHT22;11525;51.152;4.456;2023-07-20T02:32:09;16.60;99.90
22716;DHT22;11525;51.152;4.456;2023-07-20T02:34:37;16.50;99.90
22716;DHT22;11525;51.152;4.456;2023-07-20T02:37:04;16.50;99.90
22716;DHT22;11525;51.152;4.456;2023-07-20T02:39:30;16.60;99.90
22716;DHT22;11525;51.152;4.456;2023-07-20T02:41:56;16.60;99.90
22716;DHT22;11525;51.152;4.456;2023-07-20T02:44:22;16.60;99.90
22716;DHT22;11525;51.152;4.456;2023-07-20T02:46:48;16.50;99.90
22716;DHT22;11525;51.152;4.456;2023-07-20T02:49:17;16.50;99.90
22716;DHT22;11525;51.152;4.456;2023-07-20T02:51:43;16.60;99.90
22716;DHT22;11525;51.152;4.456;2023-07-20T02:54:10;16.60;99.90
22716;DHT22;11525;51.152;4.456;2023-07-20T02:56:35;16.60;99.90
22716;DHT22;11525;51.152;4.456;2023-07-20T02:59:01;16.50;99.90
22716;DHT22;11525;51.152;4.456;2023-07-20T03:01:28;16.50;99.90
22716;DHT22;11525;51.152;4.456;2023-07-20T03:03:57;16.50;99.90
22716;DHT22;11525;51.152;4.456;2023-07-20T03:06:23;16.50;99.90
22716;DHT22;11525;51.152;4.456;2023-07-20T03:08:49;16.50;99.90
22716;DHT22;11525;51.152;4.456;2023-07-20T03:11:18;16.60;99.90
22716;DHT22;11525;51.152;4.456;2023-07-20T03:13:45;16.70;99.90
22716;DHT22;11525;51.152;4.456;2023-07-20T03:16:12;16.70;99.90
22716;DHT22;11525;51.152;4.456;2023-07-20T03:18:41;16.70;99.90
22716;DHT22;11525;51.152;4.456;2023-07-20T03:21:08;16.70;99.90
22716;DHT22;11525;51.152;4.456;2023-07-20T03:23:34;16.60;99.90
22716;DHT22;11525;51.152;4.456;2023-07-20T03:26:03;16.60;99.90
22716;DHT22;11525;51.152;4.456;2023-07-20T03:28:29;16.60;99.90
22716;DHT22;11525;51.152;4.456;2023-07-20T03:30:55;16.60;99.90
22716;DHT22;11525;51.152;4.456;2023-07-20T03:33:30;16.60;99.90
22716;DHT22;11525;51.152;4.456;2023-07-20T03:35:57;16.60;99.90
22716;DHT22;11525;51.152;4.456;2023-07-20T03:38:24;16.60;99.90
22716;DHT22;11525;51.152;4.456;2023-07-20T03:40:55;16.60;99.90
22716;DHT22;11525;51.152;4.456;2023-07-20T03:43:25;16.60;99.90
22716;DHT22;11525;51.152;4.456;2023-07-20T03:45:51;16.70;99.90
22716;DHT22;11525;51.152;4.456;2023-07-20T03:48:19;16.80;99.90
22716;DHT22;11525;51.152;4.456;2023-07-20T03:50:46;16.70;99.90
22716;DHT22;11525;51.152;4.456;2023-07-20T03:53:12;16.70;99.90
22716;DHT22;11525;51.152;4.456;2023-07-20T03:55:38;16.70;99.90
22716;DHT22;11525;51.152;4.456;2023-07-20T03:58:06;16.70;99.90
22716;DHT22;11525;51.152;4.456;2023-07-20T04:00:32;16.70;99.90
22716;DHT22;11525;51.152;4.456;2023-07-20T04:02:58;16.70;99.90
22716;DHT22;11525;51.152;4.456;2023-07-20T04:05:24;16.80;99.90
22716;DHT22;11525;51.152;4.456;2023-07-20T04:07:51;16.90;99.90
22716;DHT22;11525;51.152;4.456;2023-07-20T04:10:18;16.90;99.90
22716;DHT22;11525;51.152;4.456;2023-07-20T04:12:44;17.00;99.90
22716;DHT22;11525;51.152;4.456;2023-07-20T04:15:15;17.10;99.90
22716;DHT22;11525;51.152;4.456;2023-07-20T04:17:41;17.20;99.90
22716;DHT22;11525;51.152;4.456;2023-07-20T04:20:07;17.30;99.90
22716;DHT22;11525;51.152;4.456;2023-07-20T04:22:34;17.30;99.90
22716;DHT22;11525;51.152;4.456;2023-07-20T04:24:59;17.40;99.90
22716;DHT22;11525;51.152;4.456;2023-07-20T04:27:25;17.40;99.90
22716;DHT22;11525;51.152;4.456;2023-07-20T04:29:52;17.40;99.90
22716;DHT22;11525;51.152;4.456;2023-07-20T04:32:19;17.40;99.90
22716;DHT22;11525;51.152;4.456;2023-07-20T04:34:44;17.40;99.90
22716;DHT22;11525;51.152;4.456;2023-07-20T04:37:10;17.50;99.90
22716;DHT22;11525;51.152;4.456;2023-07-20T04:39:36;17.40;99.90
22716;DHT22;11525;51.152;4.456;2023-07-20T04:42:02;17.40;99.90
22716;DHT22;11525;51.152;4.456;2023-07-20T04:44:28;17.50;99.90
22716;DHT22;11525;51.152;4.456;2023-07-20T04:46:54;17.60;99.90
22716;DHT22;11525;51.152;4.456;2023-07-20T04:49:19;17.60;99.90
22716;DHT22;11525;51.152;4.456;2023-07-20T04:51:46;17.60;99.90
22716;DHT22;11525;51.152;4.456;2023-07-20T04:54:11;17.70;99.90
22716;DHT22;11525;51.152;4.456;2023-07-20T04:56:37;17.70;99.90
22716;DHT22;11525;51.152;4.456;2023-07-20T04:59:03;17.80;99.90
22716;DHT22;11525;51.152;4.456;2023-07-20T05:01:29;17.90;99.90
22716;DHT22;11525;51.152;4.456;2023-07-20T05:03:54;17.90;99.90
22716;DHT22;11525;51.152;4.456;2023-07-20T05:06:20;18.00;99.90
22716;DHT22;11525;51.152;4.456;2023-07-20T05:08:46;18.10;99.90
22716;DHT22;11525;51.152;4.456;2023-07-20T05:11:12;18.10;99.90
22716;DHT22;11525;51.152;4.456;2023-07-20T05:13:38;18.10;99.90
22716;DHT22;11525;51.152;4.456;2023-07-20T05:16:04;18.10;99.90
22716;DHT22;11525;51.152;4.456;2023-07-20T05:18:30;18.20;99.90
22716;DHT22;11525;51.152;4.456;2023-07-20T05:20:55;18.30;99.90
22716;DHT22;11525;51.152;4.456;2023-07-20T05:23:21;18.30;99.90
22716;DHT22;11525;51.152;4.456;2023-07-20T05:25:57;18.30;99.90
22716;DHT22;11525;51.152;4.456;2023-07-20T05:28:24;18.50;99.90
22716;DHT22;11525;51.152;4.456;2023-07-20T05:30:50;18.50;99.90
22716;DHT22;11525;51.152;4.456;2023-07-20T05:33:20;18.60;99.90
22716;DHT22;11525;51.152;4.456;2023-07-20T05:35:46;18.70;99.90
22716;DHT22;11525;51.152;4.456;2023-07-20T05:38:12;18.80;99.90
22716;DHT22;11525;51.152;4.456;2023-07-20T05:40:41;18.90;99.90
22716;DHT22;11525;51.152;4.456;2023-07-20T05:43:10;19.00;99.90
22716;DHT22;11525;51.152;4.456;2023-07-20T05:45:36;18.90;99.90
22716;DHT22;11525;51.152;4.456;2023-07-20T05:48:02;18.90;99.90
22716;DHT22;11525;51.152;4.456;2023-07-20T05:50:28;18.90;99.90
22716;DHT22;11525;51.152;4.456;2023-07-20T05:52:55;18.90;99.90
22716;DHT22;11525;51.152;4.456;2023-07-20T05:55:20;18.90;99.90
22716;DHT22;11525;51.152;4.456;2023-07-20T05:57:46;18.90;99.90
22716;DHT22;11525;51.152;4.456;2023-07-20T06:00:13;19.10;99.90
22716;DHT22;11525;51.152;4.456;2023-07-20T06:02:39;19.20;99.90
22716;DHT22;11525;51.152;4.456;2023-07-20T06:05:07;19.30;99.90
22716;DHT22;11525;51.152;4.456;2023-07-20T06:07:39;19.30;99.90
22716;DHT22;11525;51.152;4.456;2023-07-20T06:10:05;19.20;99.90
22716;DHT22;11525;51.152;4.456;2023-07-20T06:12:32;19.20;99.90
22716;DHT22;11525;51.152;4.456;2023-07-20T06:15:03;19.00;99.90
22716;DHT22;11525;51.152;4.456;2023-07-20T06:17:29;19.10;99.90
22716;DHT22;11525;51.152;4.456;2023-07-20T06:19:55;19.20;99.90
22716;DHT22;11525;51.152;4.456;2023-07-20T06:22:21;19.20;99.90
22716;DHT22;11525;51.152;4.456;2023-07-20T06:24:46;19.50;99.90
22716;DHT22;11525;51.152;4.456;2023-07-20T06:27:12;19.60;99.90
22716;DHT22;11525;51.152;4.456;2023-07-20T06:29:38;19.50;99.90
22716;DHT22;11525;51.152;4.456;2023-07-20T06:32:05;19.60;99.90
22716;DHT22;11525;51.152;4.456;2023-07-20T06:34:31;19.90;99.90
22716;DHT22;11525;51.152;4.456;2023-07-20T06:36:57;20.50;99.90
22716;DHT22;11525;51.152;4.456;2023-07-20T06:39:22;21.00;99.90
22716;DHT22;11525;51.152;4.456;2023-07-20T06:41:48;21.50;99.90
22716;DHT22;11525;51.152;4.456;2023-07-20T06:44:14;21.90;99.90
22716;DHT22;11525;51.152;4.456;2023-07-20T06:46:39;22.00;99.90
22716;DHT22;11525;51.152;4.456;2023-07-20T06:49:06;21.40;99.90
22716;DHT22;11525;51.152;4.456;2023-07-20T06:51:33;20.90;99.90
22716;DHT22;11525;51.152;4.456;2023-07-20T06:53:59;21.10;99.90
22716;DHT22;11525;51.152;4.456;2023-07-20T06:56:25;21.80;99.90
22716;DHT22;11525;51.152;4.456;2023-07-20T06:58:51;21.10;99.90
22716;DHT22;11525;51.152;4.456;2023-07-20T07:01:17;21.20;99.90
22716;DHT22;11525;51.152;4.456;2023-07-20T07:03:43;21.80;99.90
22716;DHT22;11525;51.152;4.456;2023-07-20T07:06:09;22.20;99.90
22716;DHT22;11525;51.152;4.456;2023-07-20T07:08:35;22.50;99.90
22716;DHT22;11525;51.152;4.456;2023-07-20T07:11:01;22.40;99.90
22716;DHT22;11525;51.152;4.456;2023-07-20T07:13:27;21.80;99.90
22716;DHT22;11525;51.152;4.456;2023-07-20T07:15:53;21.80;99.90
22716;DHT22;11525;51.152;4.456;2023-07-20T07:18:19;22.10;99.90
22716;DHT22;11525;51.152;4.456;2023-07-20T07:20:52;22.50;99.90
22716;DHT22;11525;51.152;4.456;2023-07-20T07:23:18;22.50;99.90
22716;DHT22;11525;51.152;4.456;2023-07-20T07:25:44;22.60;99.90
22716;DHT22;11525;51.152;4.456;2023-07-20T07:28:10;22.90;99.90
22716;DHT22;11525;51.152;4.456;2023-07-20T07:30:36;22.70;99.90
22716;DHT22;11525;51.152;4.456;2023-07-20T07:33:02;22.80;99.90
22716;DHT22;11525;51.152;4.456;2023-07-20T07:35:27;22.80;99.90
22716;DHT22;11525;51.152;4.456;2023-07-20T07:37:53;22.60;99.90
22716;DHT22;11525;51.152;4.456;2023-07-20T07:40:19;24.00;99.90
22716;DHT22;11525;51.152;4.456;2023-07-20T07:42:45;24.90;99.90
22716;DHT22;11525;51.152;4.456;2023-07-20T07:45:10;24.90;99.90
22716;DHT22;11525;51.152;4.456;2023-07-20T07:47:36;23.90;99.90
22716;DHT22;11525;51.152;4.456;2023-07-20T07:50:02;23.90;99.90
22716;DHT22;11525;51.152;4.456;2023-07-20T07:52:28;24.20;99.90
22716;DHT22;11525;51.152;4.456;2023-07-20T07:54:54;24.70;99.90
22716;DHT22;11525;51.152;4.456;2023-07-20T07:57:20;24.80;99.90
22716;DHT22;11525;51.152;4.456;2023-07-20T07:59:45;24.70;99.90
22716;DHT22;11525;51.152;4.456;2023-07-20T08:02:11;24.80;99.90
22716;DHT22;11525;51.152;4.456;2023-07-20T08:04:37;24.50;99.90
22716;DHT22;11525;51.152;4.456;2023-07-20T08:07:04;24.40;99.90
22716;DHT22;11525;51.152;4.456;2023-07-20T08:09:30;24.50;99.90
22716;DHT22;11525;51.152;4.456;2023-07-20T08:11:56;25.70;99.90
22716;DHT22;11525;51.152;4.456;2023-07-20T08:14:22;26.30;99.90
22716;DHT22;11525;51.152;4.456;2023-07-20T08:16:47;27.70;99.50
22716;DHT22;11525;51.152;4.456;2023-07-20T08:19:13;29.10;95.20
22716;DHT22;11525;51.152;4.456;2023-07-20T08:21:39;28.50;92.30
22716;DHT22;11525;51.152;4.456;2023-07-20T08:24:05;26.20;96.80
22716;DHT22;11525;51.152;4.456;2023-07-20T08:26:31;25.50;99.90
22716;DHT22;11525;51.152;4.456;2023-07-20T08:28:57;25.40;99.90
22716;DHT22;11525;51.152;4.456;2023-07-20T08:31:22;25.70;99.80
22716;DHT22;11525;51.152;4.456;2023-07-20T08:33:48;26.10;99.50
22716;DHT22;11525;51.152;4.456;2023-07-20T08:36:14;25.30;99.90
22716;DHT22;11525;51.152;4.456;2023-07-20T08:38:40;24.90;99.90
22716;DHT22;11525;51.152;4.456;2023-07-20T08:41:06;25.10;99.90
22716;DHT22;11525;51.152;4.456;2023-07-20T08:43:33;25.20;99.90
22716;DHT22;11525;51.152;4.456;2023-07-20T08:46:00;25.30;99.90
22716;DHT22;11525;51.152;4.456;2023-07-20T08:48:27;25.10;99.90
22716;DHT22;11525;51.152;4.456;2023-07-20T08:50:53;24.90;99.90
22716;DHT22;11525;51.152;4.456;2023-07-20T08:53:20;24.10;99.90
22716;DHT22;11525;51.152;4.456;2023-07-20T08:55:46;25.20;99.90
22716;DHT22;11525;51.152;4.456;2023-07-20T08:58:15;28.70;95.70
22716;DHT22;11525;51.152;4.456;2023-07-20T09:00:42;31.40;84.60
22716;DHT22;11525;51.152;4.456;2023-07-20T09:03:08;32.10;76.00
22716;DHT22;11525;51.152;4.456;2023-07-20T09:05:34;30.50;75.30
22716;DHT22;11525;51.152;4.456;2023-07-20T09:08:01;29.50;78.20
22716;DHT22;11525;51.152;4.456;2023-07-20T09:10:29;28.60;81.30
22716;DHT22;11525;51.152;4.456;2023-07-20T09:12:55;27.10;86.90
22716;DHT22;11525;51.152;4.456;2023-07-20T09:15:22;25.70;90.90
22716;DHT22;11525;51.152;4.456;2023-07-20T09:17:49;24.70;94.60
22716;DHT22;11525;51.152;4.456;2023-07-20T09:20:18;24.10;96.90
22716;DHT22;11525;51.152;4.456;2023-07-20T09:22:45;23.80;98.50
22716;DHT22;11525;51.152;4.456;2023-07-20T09:25:15;23.70;99.10
22716;DHT22;11525;51.152;4.456;2023-07-20T09:27:42;23.60;99.50
22716;DHT22;11525;51.152;4.456;2023-07-20T09:30:10;23.50;99.90
22716;DHT22;11525;51.152;4.456;2023-07-20T09:32:49;23.50;99.90
22716;DHT22;11525;51.152;4.456;2023-07-20T09:35:17;23.40;99.90
22716;DHT22;11525;51.152;4.456;2023-07-20T09:38:08;23.30;99.90
22716;DHT22;11525;51.152;4.456;2023-07-20T09:40:37;23.00;99.90
22716;DHT22;11525;51.152;4.456;2023-07-20T09:43:08;22.70;99.90
22716;DHT22;11525;51.152;4.456;2023-07-20T09:45:41;22.70;99.90
22716;DHT22;11525;51.152;4.456;2023-07-20T09:48:10;22.70;99.90
22716;DHT22;11525;51.152;4.456;2023-07-20T09:50:48;23.70;99.90
22716;DHT22;11525;51.152;4.456;2023-07-20T09:53:15;25.40;99.90
22716;DHT22;11525;51.152;4.456;2023-07-20T09:55:44;26.70;95.20
22716;DHT22;11525;51.152;4.456;2023-07-20T09:58:10;27.50;93.00
22716;DHT22;11525;51.152;4.456;2023-07-20T10:00:37;28.40;90.40
22716;DHT22;11525;51.152;4.456;2023-07-20T10:03:04;28.60;86.60
22716;DHT22;11525;51.152;4.456;2023-07-20T10:05:35;29.80;83.90
22716;DHT22;11525;51.152;4.456;2023-07-20T10:08:03;31.00;77.40
22716;DHT22;11525;51.152;4.456;2023-07-20T10:10:33;30.60;75.00
22716;DHT22;11525;51.152;4.456;2023-07-20T10:13:01;29.90;76.20
22716;DHT22;11525;51.152;4.456;2023-07-20T10:15:37;29.00;78.80
22716;DHT22;11525;51.152;4.456;2023-07-20T10:18:28;28.00;80.90
22716;DHT22;11525;51.152;4.456;2023-07-20T10:20:55;27.40;83.40
22716;DHT22;11525;51.152;4.456;2023-07-20T10:23:22;25.80;88.80
22716;DHT22;11525;51.152;4.456;2023-07-20T10:25:50;26.20;90.40
22716;DHT22;11525;51.152;4.456;2023-07-20T10:28:16;25.30;90.80
22716;DHT22;11525;51.152;4.456;2023-07-20T10:30:42;25.60;91.20
22716;DHT22;11525;51.152;4.456;2023-07-20T10:33:08;25.20;92.10
22716;DHT22;11525;51.152;4.456;2023-07-20T10:35:54;24.40;94.20
22716;DHT22;11525;51.152;4.456;2023-07-20T10:38:33;24.00;94.80
22716;DHT22;11525;51.152;4.456;2023-07-20T10:41:03;24.60;95.10
22716;DHT22;11525;51.152;4.456;2023-07-20T10:43:29;26.40;91.90
22716;DHT22;11525;51.152;4.456;2023-07-20T10:45:55;28.90;84.30
22716;DHT22;11525;51.152;4.456;2023-07-20T10:48:25;30.20;76.40
22716;DHT22;11525;51.152;4.456;2023-07-20T10:51:13;30.60;72.80
22716;DHT22;11525;51.152;4.456;2023-07-20T10:53:42;31.30;72.20
22716;DHT22;11525;51.152;4.456;2023-07-20T10:56:12;32.80;65.90
22716;DHT22;11525;51.152;4.456;2023-07-20T10:58:39;32.60;63.10
22716;DHT22;11525;51.152;4.456;2023-07-20T11:01:06;32.00;63.00
22716;DHT22;11525;51.152;4.456;2023-07-20T11:03:39;31.10;65.30
22716;DHT22;11525;51.152;4.456;2023-07-20T11:08:55;29.80;64.40
22716;DHT22;11525;51.152;4.456;2023-07-20T11:11:23;28.90;68.90
22716;DHT22;11525;51.152;4.456;2023-07-20T11:13:57;28.50;69.50
22716;DHT22;11525;51.152;4.456;2023-07-20T11:19:03;27.30;70.50
22716;DHT22;11525;51.152;4.456;2023-07-20T11:21:35;27.00;71.70
22716;DHT22;11525;51.152;4.456;2023-07-20T11:24:04;26.70;73.40
22716;DHT22;11525;51.152;4.456;2023-07-20T11:26:29;26.50;73.90
22716;DHT22;11525;51.152;4.456;2023-07-20T11:28:55;26.10;74.50
22716;DHT22;11525;51.152;4.456;2023-07-20T11:31:21;25.70;76.10
22716;DHT22;11525;51.152;4.456;2023-07-20T11:33:47;25.60;76.40
22716;DHT22;11525;51.152;4.456;2023-07-20T11:36:13;26.00;77.00
22716;DHT22;11525;51.152;4.456;2023-07-20T11:38:42;26.30;76.20
22716;DHT22;11525;51.152;4.456;2023-07-20T11:41:10;26.70;76.00
22716;DHT22;11525;51.152;4.456;2023-07-20T11:43:38;26.90;74.70
22716;DHT22;11525;51.152;4.456;2023-07-20T11:46:05;27.20;74.10
22716;DHT22;11525;51.152;4.456;2023-07-20T11:48:31;27.40;73.90
22716;DHT22;11525;51.152;4.456;2023-07-20T11:50:57;27.70;72.30
22716;DHT22;11525;51.152;4.456;2023-07-20T11:53:24;27.40;70.40
22716;DHT22;11525;51.152;4.456;2023-07-20T11:55:51;27.50;71.90
22716;DHT22;11525;51.152;4.456;2023-07-20T11:58:17;27.40;71.40
22716;DHT22;11525;51.152;4.456;2023-07-20T12:00:44;27.60;70.50
22716;DHT22;11525;51.152;4.456;2023-07-20T12:03:12;27.30;71.70
22716;DHT22;11525;51.152;4.456;2023-07-20T12:05:38;27.30;71.10
22716;DHT22;11525;51.152;4.456;2023-07-20T12:08:04;27.30;71.90
22716;DHT22;11525;51.152;4.456;2023-07-20T12:10:30;27.30;71.20
22716;DHT22;11525;51.152;4.456;2023-07-20T12:13:02;27.20;71.00
22716;DHT22;11525;51.152;4.456;2023-07-20T12:15:31;27.10;72.10
22716;DHT22;11525;51.152;4.456;2023-07-20T12:18:02;27.00;72.40
22716;DHT22;11525;51.152;4.456;2023-07-20T12:20:30;26.70;74.00
22716;DHT22;11525;51.152;4.456;2023-07-20T12:23:15;26.50;72.90
22716;DHT22;11525;51.152;4.456;2023-07-20T12:25:44;26.50;74.90
22716;DHT22;11525;51.152;4.456;2023-07-20T12:28:15;26.50;75.00
22716;DHT22;11525;51.152;4.456;2023-07-20T12:30:42;26.30;74.40
22716;DHT22;11525;51.152;4.456;2023-07-20T12:33:08;26.20;75.30
22716;DHT22;11525;51.152;4.456;2023-07-20T12:35:34;26.10;74.00
22716;DHT22;11525;51.152;4.456;2023-07-20T12:38:00;25.60;74.20
22716;DHT22;11525;51.152;4.456;2023-07-20T12:40:26;25.30;75.30
22716;DHT22;11525;51.152;4.456;2023-07-20T12:42:52;25.10;76.00
22716;DHT22;11525;51.152;4.456;2023-07-20T12:45:18;25.20;76.90
22716;DHT22;11525;51.152;4.456;2023-07-20T12:47:44;25.20;77.50
22716;DHT22;11525;51.152;4.456;2023-07-20T12:50:10;25.30;78.20
22716;DHT22;11525;51.152;4.456;2023-07-20T12:52:37;25.30;77.80
22716;DHT22;11525;51.152;4.456;2023-07-20T12:55:05;25.00;76.30
22716;DHT22;11525;51.152;4.456;2023-07-20T12:57:32;24.90;76.00
22716;DHT22;11525;51.152;4.456;2023-07-20T12:59:58;24.90;76.90
22716;DHT22;11525;51.152;4.456;2023-07-20T13:02:24;24.90;76.90
22716;DHT22;11525;51.152;4.456;2023-07-20T13:04:50;24.60;77.60
22716;DHT22;11525;51.152;4.456;2023-07-20T13:07:15;24.60;78.10
22716;DHT22;11525;51.152;4.456;2023-07-20T13:09:41;24.50;79.40
22716;DHT22;11525;51.152;4.456;2023-07-20T13:12:07;24.30;80.20
22716;DHT22;11525;51.152;4.456;2023-07-20T13:14:33;24.00;82.30
22716;DHT22;11525;51.152;4.456;2023-07-20T13:16:59;23.90;84.70
22716;DHT22;11525;51.152;4.456;2023-07-20T13:19:25;23.90;84.70
22716;DHT22;11525;51.152;4.456;2023-07-20T13:21:51;23.80;85.40
22716;DHT22;11525;51.152;4.456;2023-07-20T13:24:17;23.60;86.00
22716;DHT22;11525;51.152;4.456;2023-07-20T13:26:43;23.30;87.50
22716;DHT22;11525;51.152;4.456;2023-07-20T13:29:09;23.30;88.20
22716;DHT22;11525;51.152;4.456;2023-07-20T13:31:34;23.20;89.30
22716;DHT22;11525;51.152;4.456;2023-07-20T13:34:00;23.40;89.10
22716;DHT22;11525;51.152;4.456;2023-07-20T13:36:26;23.40;88.80
22716;DHT22;11525;51.152;4.456;2023-07-20T13:38:52;23.40;89.60
22716;DHT22;11525;51.152;4.456;2023-07-20T13:41:18;23.50;89.30
22716;DHT22;11525;51.152;4.456;2023-07-20T13:43:44;23.50;90.00
22716;DHT22;11525;51.152;4.456;2023-07-20T13:46:10;23.50;89.80
22716;DHT22;11525;51.152;4.456;2023-07-20T13:48:36;23.10;90.00
22716;DHT22;11525;51.152;4.456;2023-07-20T13:51:02;23.10;90.80
22716;DHT22;11525;51.152;4.456;2023-07-20T13:53:27;23.00;91.30
22716;DHT22;11525;51.152;4.456;2023-07-20T13:55:54;23.00;91.80
22716;DHT22;11525;51.152;4.456;2023-07-20T13:58:20;23.00;92.00
22716;DHT22;11525;51.152;4.456;2023-07-20T14:00:45;23.00;91.90
22716;DHT22;11525;51.152;4.456;2023-07-20T14:03:11;22.80;92.60
22716;DHT22;11525;51.152;4.456;2023-07-20T14:05:37;22.80;92.80
22716;DHT22;11525;51.152;4.456;2023-07-20T14:08:03;22.80;93.60
22716;DHT22;11525;51.152;4.456;2023-07-20T14:10:28;22.80;93.60
22716;DHT22;11525;51.152;4.456;2023-07-20T14:12:54;22.80;93.90
22716;DHT22;11525;51.152;4.456;2023-07-20T14:15:20;22.90;94.50
22716;DHT22;11525;51.152;4.456;2023-07-20T14:17:45;23.10;94.00
22716;DHT22;11525;51.152;4.456;2023-07-20T14:20:11;23.20;94.10
22716;DHT22;11525;51.152;4.456;2023-07-20T14:22:37;23.30;93.70
22716;DHT22;11525;51.152;4.456;2023-07-20T14:25:04;23.30;93.70
22716;DHT22;11525;51.152;4.456;2023-07-20T14:27:30;23.20;93.30
22716;DHT22;11525;51.152;4.456;2023-07-20T14:29:55;23.20;93.60
22716;DHT22;11525;51.152;4.456;2023-07-20T14:32:21;23.20;93.50
22716;DHT22;11525;51.152;4.456;2023-07-20T14:34:47;23.20;93.30
22716;DHT22;11525;51.152;4.456;2023-07-20T14:37:12;23.30;93.50
22716;DHT22;11525;51.152;4.456;2023-07-20T14:39:38;23.40;93.40
22716;DHT22;11525;51.152;4.456;2023-07-20T14:42:04;23.40;93.40
22716;DHT22;11525;51.152;4.456;2023-07-20T14:44:30;23.40;93.70
22716;DHT22;11525;51.152;4.456;2023-07-20T14:46:56;23.40;94.40
22716;DHT22;11525;51.152;4.456;2023-07-20T14:49:22;23.30;94.60
22716;DHT22;11525;51.152;4.456;2023-07-20T14:51:47;23.30;94.60
22716;DHT22;11525;51.152;4.456;2023-07-20T14:54:14;23.50;94.00
22716;DHT22;11525;51.152;4.456;2023-07-20T14:56:49;23.60;94.10
22716;DHT22;11525;51.152;4.456;2023-07-20T14:59:15;23.80;92.90
22716;DHT22;11525;51.152;4.456;2023-07-20T15:01:41;23.90;93.10
22716;DHT22;11525;51.152;4.456;2023-07-20T15:04:08;24.00;92.50
22716;DHT22;11525;51.152;4.456;2023-07-20T15:06:33;24.20;92.70
22716;DHT22;11525;51.152;4.456;2023-07-20T15:08:59;24.10;91.90
22716;DHT22;11525;51.152;4.456;2023-07-20T15:11:26;24.10;92.30
22716;DHT22;11525;51.152;4.456;2023-07-20T15:13:52;24.20;92.10
22716;DHT22;11525;51.152;4.456;2023-07-20T15:16:17;24.10;92.10
22716;DHT22;11525;51.152;4.456;2023-07-20T15:18:43;24.10;92.30
22716;DHT22;11525;51.152;4.456;2023-07-20T15:21:09;23.90;92.50
22716;DHT22;11525;51.152;4.456;2023-07-20T15:23:34;23.90;92.90
22716;DHT22;11525;51.152;4.456;2023-07-20T15:26:00;23.90;92.80
22716;DHT22;11525;51.152;4.456;2023-07-20T15:28:26;24.00;92.50
22716;DHT22;11525;51.152;4.456;2023-07-20T15:30:59;24.00;92.80
22716;DHT22;11525;51.152;4.456;2023-07-20T15:33:25;23.90;92.90
22716;DHT22;11525;51.152;4.456;2023-07-20T15:35:51;23.80;92.60
22716;DHT22;11525;51.152;4.456;2023-07-20T15:38:17;23.60;92.50
22716;DHT22;11525;51.152;4.456;2023-07-20T15:40:43;23.60;92.90
22716;DHT22;11525;51.152;4.456;2023-07-20T15:43:09;23.30;93.30
22716;DHT22;11525;51.152;4.456;2023-07-20T15:45:35;23.20;94.00
22716;DHT22;11525;51.152;4.456;2023-07-20T15:48:01;23.00;94.90